Terminal Aerodrome Forecast
Issued by NWS Wilmington, OH

Current Version | Previous Version | Graphics & Text | Print | Product List | Glossary On
Versions: 1 2 3 4 5 6 7 8 9 10 11 12 13 14 15 16 17 18 19 20 21 22 23 24
298
FTUS41 KILN 212101 AAA
TAFCVG
TAF AMD
KCVG 212101Z 2121/2224 21014G22KT P6SM SCT120 BKN200 BKN250
     FM212300 24011KT P6SM SCT100 BKN250
     FM220100 27008KT P6SM BKN090
     FM220300 31009KT P6SM BKN050
     FM221400 36007KT P6SM FEW025=

USA.gov is the U.S. government's official web portal to all federal, state and local government web resources and services.